CheckWX is a tool to help pilots better visualize weather data.  It is not intended as a substitute for an official pre-flight weather briefing.

13:02:15 UTC

EKOD METAR
Odense Airport
Odense, Denmark
Current

12 mins ago

EKOD 211250Z 05006KT 2700 BR SCT002 OVC006 06/06 Q1013
Observed
Nov-21 @ 12:50 UTC
Wind
  • 050° at 6 KTS
Visibility
2,700 meters
Flight Rules
IFR
Conditions
Mist
Cloud Levels
  • Scattered at 200' AGL
  • Overcast at 600' AGL
Temperature
C / 43°F
Dewpoint
C / 43°F
Humidity
100%
Altimeter
29.91" Hg
Pressure
1012.92 hPa
Previous

42 mins ago

EKOD 211220Z 05006KT 2800 BR BKN002 OVC005 06/05 Q1013
Observed
Nov-21 @ 12:20 UTC
Wind
  • 050° at 6 KTS
Visibility
2,800 meters
Flight Rules
LIFR
Conditions
Mist
Cloud Levels
  • Broken at 200' AGL
  • Overcast at 500' AGL
Temperature
C / 43°F
Dewpoint
C / 41°F
Humidity
93%
Altimeter
29.91" Hg
Pressure
1012.92 hPa
Previous

1 hour ago

EKOD 211150Z 05006KT 1800 BR FEW001 OVC003 06/05 Q1014
Observed
Nov-21 @ 11:50 UTC
Wind
  • 050° at 6 KTS
Visibility
1,800 meters
Flight Rules
LIFR
Conditions
Mist
Cloud Levels
  • Few at 100' AGL
  • Overcast at 300' AGL
Temperature
C / 43°F
Dewpoint
C / 41°F
Humidity
93%
Altimeter
29.94" Hg
Pressure
1013.92 hPa